sensor_id;sensor_type;location;lat;lon;timestamp;temperature;humidity
66213;SHT31;53015;50.046;8.238;2023-02-28T00:01:33;1.35;68.28
66213;SHT31;53015;50.046;8.238;2023-02-28T00:03:59;1.29;68.90
66213;SHT31;53015;50.046;8.238;2023-02-28T00:06:25;1.24;68.93
66213;SHT31;53015;50.046;8.238;2023-02-28T00:08:51;1.27;69.06
66213;SHT31;53015;50.046;8.238;2023-02-28T00:11:17;1.25;69.20
66213;SHT31;53015;50.046;8.238;2023-02-28T00:13:44;1.40;69.36
66213;SHT31;53015;50.046;8.238;2023-02-28T00:16:12;1.32;69.58
66213;SHT31;53015;50.046;8.238;2023-02-28T00:18:39;1.22;69.83
66213;SHT31;53015;50.046;8.238;2023-02-28T00:21:06;1.32;70.18
66213;SHT31;53015;50.046;8.238;2023-02-28T00:23:32;1.24;70.27
66213;SHT31;53015;50.046;8.238;2023-02-28T00:25:57;1.29;70.06
66213;SHT31;53015;50.046;8.238;2023-02-28T00:28:24;1.29;69.76
66213;SHT31;53015;50.046;8.238;2023-02-28T00:30:49;1.25;70.07
66213;SHT31;53015;50.046;8.238;2023-02-28T00:33:15;1.34;69.45
66213;SHT31;53015;50.046;8.238;2023-02-28T00:35:41;1.31;69.77
66213;SHT31;53015;50.046;8.238;2023-02-28T00:38:07;1.31;69.64
66213;SHT31;53015;50.046;8.238;2023-02-28T00:40:33;1.34;70.05
66213;SHT31;53015;50.046;8.238;2023-02-28T00:42:58;1.31;69.84
66213;SHT31;53015;50.046;8.238;2023-02-28T00:45:24;1.28;70.50
66213;SHT31;53015;50.046;8.238;2023-02-28T00:47:49;1.27;70.07
66213;SHT31;53015;50.046;8.238;2023-02-28T00:50:15;1.38;69.86
66213;SHT31;53015;50.046;8.238;2023-02-28T00:52:42;1.21;70.26
66213;SHT31;53015;50.046;8.238;2023-02-28T00:55:08;1.07;70.79
66213;SHT31;53015;50.046;8.238;2023-02-28T00:57:34;1.02;70.94
66213;SHT31;53015;50.046;8.238;2023-02-28T00:59:59;1.02;71.00
66213;SHT31;53015;50.046;8.238;2023-02-28T01:02:26;0.94;71.08
66213;SHT31;53015;50.046;8.238;2023-02-28T01:04:51;0.81;71.40
66213;SHT31;53015;50.046;8.238;2023-02-28T01:07:17;0.85;71.52
66213;SHT31;53015;50.046;8.238;2023-02-28T01:09:43;0.85;71.57
66213;SHT31;53015;50.046;8.238;2023-02-28T01:12:09;0.81;71.96
66213;SHT31;53015;50.046;8.238;2023-02-28T01:14:35;0.77;71.97
66213;SHT31;53015;50.046;8.238;2023-02-28T01:17:01;0.77;72.16
66213;SHT31;53015;50.046;8.238;2023-02-28T01:19:26;0.66;72.41
66213;SHT31;53015;50.046;8.238;2023-02-28T01:21:52;0.69;72.43
66213;SHT31;53015;50.046;8.238;2023-02-28T01:24:19;0.62;72.83
66213;SHT31;53015;50.046;8.238;2023-02-28T01:26:46;0.55;73.53
66213;SHT31;53015;50.046;8.238;2023-02-28T01:29:12;0.60;73.15
66213;SHT31;53015;50.046;8.238;2023-02-28T01:31:37;0.56;73.57
66213;SHT31;53015;50.046;8.238;2023-02-28T01:34:03;0.56;73.69
66213;SHT31;53015;50.046;8.238;2023-02-28T01:36:29;0.52;74.04
66213;SHT31;53015;50.046;8.238;2023-02-28T01:38:55;0.52;74.20
66213;SHT31;53015;50.046;8.238;2023-02-28T01:41:23;0.50;74.44
66213;SHT31;53015;50.046;8.238;2023-02-28T01:43:59;0.48;74.66
66213;SHT31;53015;50.046;8.238;2023-02-28T01:46:25;0.50;74.90
66213;SHT31;53015;50.046;8.238;2023-02-28T01:48:53;0.50;74.96
66213;SHT31;53015;50.046;8.238;2023-02-28T01:51:26;0.45;75.25
66213;SHT31;53015;50.046;8.238;2023-02-28T01:53:56;0.46;75.17
66213;SHT31;53015;50.046;8.238;2023-02-28T01:56:24;0.55;74.98
66213;SHT31;53015;50.046;8.238;2023-02-28T01:58:52;0.63;74.63
66213;SHT31;53015;50.046;8.238;2023-02-28T02:01:19;0.63;74.61
66213;SHT31;53015;50.046;8.238;2023-02-28T02:03:45;0.66;74.60
66213;SHT31;53015;50.046;8.238;2023-02-28T02:06:10;0.64;74.47
66213;SHT31;53015;50.046;8.238;2023-02-28T02:08:36;0.56;74.88
66213;SHT31;53015;50.046;8.238;2023-02-28T02:11:02;0.59;74.57
66213;SHT31;53015;50.046;8.238;2023-02-28T02:13:44;0.48;74.76
66213;SHT31;53015;50.046;8.238;2023-02-28T02:16:22;0.53;74.91
66213;SHT31;53015;50.046;8.238;2023-02-28T02:18:54;0.43;74.75
66213;SHT31;53015;50.046;8.238;2023-02-28T02:21:57;0.46;74.68
66213;SHT31;53015;50.046;8.238;2023-02-28T02:25:04;0.55;74.00
66213;SHT31;53015;50.046;8.238;2023-02-28T02:28:04;0.81;74.10
66213;SHT31;53015;50.046;8.238;2023-02-28T02:30:53;0.62;73.56
66213;SHT31;53015;50.046;8.238;2023-02-28T02:33:59;0.62;73.95
66213;SHT31;53015;50.046;8.238;2023-02-28T02:36:27;0.59;74.41
66213;SHT31;53015;50.046;8.238;2023-02-28T02:39:01;0.45;75.02
66213;SHT31;53015;50.046;8.238;2023-02-28T02:41:35;0.28;74.74
66213;SHT31;53015;50.046;8.238;2023-02-28T02:44:04;0.17;75.25
66213;SHT31;53015;50.046;8.238;2023-02-28T02:46:33;0.18;75.14
66213;SHT31;53015;50.046;8.238;2023-02-28T02:49:04;0.18;74.86
66213;SHT31;53015;50.046;8.238;2023-02-28T02:51:32;0.26;74.65
66213;SHT31;53015;50.046;8.238;2023-02-28T02:54:02;0.21;74.21
66213;SHT31;53015;50.046;8.238;2023-02-28T02:56:32;0.36;73.96
66213;SHT31;53015;50.046;8.238;2023-02-28T02:59:01;0.28;74.19
66213;SHT31;53015;50.046;8.238;2023-02-28T03:01:29;0.25;74.08
66213;SHT31;53015;50.046;8.238;2023-02-28T03:03:57;0.21;74.00
66213;SHT31;53015;50.046;8.238;2023-02-28T03:06:25;0.08;73.73
66213;SHT31;53015;50.046;8.238;2023-02-28T03:08:51;0.09;73.58
66213;SHT31;53015;50.046;8.238;2023-02-28T03:11:16;0.11;73.65
66213;SHT31;53015;50.046;8.238;2023-02-28T03:14:09;0.09;73.63
66213;SHT31;53015;50.046;8.238;2023-02-28T03:16:38;0.02;73.89
66213;SHT31;53015;50.046;8.238;2023-02-28T03:19:26;0.11;73.63
66213;SHT31;53015;50.046;8.238;2023-02-28T03:22:09;-0.03;73.94
66213;SHT31;53015;50.046;8.238;2023-02-28T03:24:45;-0.05;73.70
66213;SHT31;53015;50.046;8.238;2023-02-28T03:27:17;-0.03;73.26
66213;SHT31;53015;50.046;8.238;2023-02-28T03:29:48;-0.02;73.25
66213;SHT31;53015;50.046;8.238;2023-02-28T03:32:21;0.09;72.40
66213;SHT31;53015;50.046;8.238;2023-02-28T03:34:51;0.09;72.48
66213;SHT31;53015;50.046;8.238;2023-02-28T03:37:22;0.08;72.42
66213;SHT31;53015;50.046;8.238;2023-02-28T03:39:51;-0.02;72.76
66213;SHT31;53015;50.046;8.238;2023-02-28T03:42:20;-0.01;72.69
66213;SHT31;53015;50.046;8.238;2023-02-28T03:44:50;0.01;72.70
66213;SHT31;53015;50.046;8.238;2023-02-28T03:47:20;0.01;72.63
66213;SHT31;53015;50.046;8.238;2023-02-28T03:49:52;0.01;72.79
66213;SHT31;53015;50.046;8.238;2023-02-28T03:52:22;-0.05;72.62
66213;SHT31;53015;50.046;8.238;2023-02-28T03:54:51;-0.02;72.91
66213;SHT31;53015;50.046;8.238;2023-02-28T03:57:22;0.01;72.69
66213;SHT31;53015;50.046;8.238;2023-02-28T03:59:53;-0.03;72.49
66213;SHT31;53015;50.046;8.238;2023-02-28T04:02:20;-0.05;72.52
66213;SHT31;53015;50.046;8.238;2023-02-28T04:04:46;-0.06;72.47
66213;SHT31;53015;50.046;8.238;2023-02-28T04:07:11;-0.05;72.27
66213;SHT31;53015;50.046;8.238;2023-02-28T04:09:37;-0.02;71.98
66213;SHT31;53015;50.046;8.238;2023-02-28T04:12:04;0.02;71.84
66213;SHT31;53015;50.046;8.238;2023-02-28T04:14:29;0.05;71.51
66213;SHT31;53015;50.046;8.238;2023-02-28T04:16:55;0.08;70.84
66213;SHT31;53015;50.046;8.238;2023-02-28T04:19:20;0.12;70.69
66213;SHT31;53015;50.046;8.238;2023-02-28T04:21:47;0.05;70.79
66213;SHT31;53015;50.046;8.238;2023-02-28T04:24:14;0.02;71.18
66213;SHT31;53015;50.046;8.238;2023-02-28T04:26:42;0.05;70.75
66213;SHT31;53015;50.046;8.238;2023-02-28T04:29:08;0.15;70.42
66213;SHT31;53015;50.046;8.238;2023-02-28T04:31:34;0.09;70.29
66213;SHT31;53015;50.046;8.238;2023-02-28T04:34:00;0.14;70.23
66213;SHT31;53015;50.046;8.238;2023-02-28T04:36:26;0.15;70.32
66213;SHT31;53015;50.046;8.238;2023-02-28T04:38:51;0.11;70.15
66213;SHT31;53015;50.046;8.238;2023-02-28T04:41:17;0.05;70.68
66213;SHT31;53015;50.046;8.238;2023-02-28T04:43:43;0.04;70.46
66213;SHT31;53015;50.046;8.238;2023-02-28T04:46:09;0.09;70.43
66213;SHT31;53015;50.046;8.238;2023-02-28T04:48:36;0.01;70.58
66213;SHT31;53015;50.046;8.238;2023-02-28T04:51:04;0.02;70.66
66213;SHT31;53015;50.046;8.238;2023-02-28T04:53:30;-0.02;70.65
66213;SHT31;53015;50.046;8.238;2023-02-28T04:55:56;-0.01;71.07
66213;SHT31;53015;50.046;8.238;2023-02-28T04:58:21;-0.02;70.46
66213;SHT31;53015;50.046;8.238;2023-02-28T05:00:47;-0.09;70.59
66213;SHT31;53015;50.046;8.238;2023-02-28T05:03:13;-0.07;70.68
66213;SHT31;53015;50.046;8.238;2023-02-28T05:05:38;-0.10;71.11
66213;SHT31;53015;50.046;8.238;2023-02-28T05:08:04;-0.05;70.42
66213;SHT31;53015;50.046;8.238;2023-02-28T05:10:29;-0.07;70.55
66213;SHT31;53015;50.046;8.238;2023-02-28T05:12:55;-0.05;70.36
66213;SHT31;53015;50.046;8.238;2023-02-28T05:15:21;-0.12;70.64
66213;SHT31;53015;50.046;8.238;2023-02-28T05:17:47;-0.10;70.30
66213;SHT31;53015;50.046;8.238;2023-02-28T05:20:13;-0.07;70.43
66213;SHT31;53015;50.046;8.238;2023-02-28T05:22:38;-0.14;70.53
66213;SHT31;53015;50.046;8.238;2023-02-28T05:25:04;-0.10;70.61
66213;SHT31;53015;50.046;8.238;2023-02-28T05:27:30;-0.07;70.63
66213;SHT31;53015;50.046;8.238;2023-02-28T05:29:56;0.01;69.94
66213;SHT31;53015;50.046;8.238;2023-02-28T05:32:21;0.02;69.95
66213;SHT31;53015;50.046;8.238;2023-02-28T05:34:48;-0.02;69.94
66213;SHT31;53015;50.046;8.238;2023-02-28T05:37:14;-0.10;70.34
66213;SHT31;53015;50.046;8.238;2023-02-28T05:39:40;-0.10;70.21
66213;SHT31;53015;50.046;8.238;2023-02-28T05:42:05;-0.05;69.95
66213;SHT31;53015;50.046;8.238;2023-02-28T05:44:31;0.01;69.96
66213;SHT31;53015;50.046;8.238;2023-02-28T05:46:56;-0.02;70.19
66213;SHT31;53015;50.046;8.238;2023-02-28T05:49:22;-0.03;70.35
66213;SHT31;53015;50.046;8.238;2023-02-28T05:51:48;-0.02;69.92
66213;SHT31;53015;50.046;8.238;2023-02-28T05:54:14;0.04;69.81
66213;SHT31;53015;50.046;8.238;2023-02-28T05:56:39;0.05;69.87
66213;SHT31;53015;50.046;8.238;2023-02-28T05:59:05;0.18;69.83
66213;SHT31;53015;50.046;8.238;2023-02-28T06:01:32;0.15;69.97
66213;SHT31;53015;50.046;8.238;2023-02-28T06:03:59;0.18;69.15
66213;SHT31;53015;50.046;8.238;2023-02-28T06:06:25;0.22;68.99
66213;SHT31;53015;50.046;8.238;2023-02-28T06:08:51;0.22;68.90
66213;SHT31;53015;50.046;8.238;2023-02-28T06:11:17;0.22;68.69
66213;SHT31;53015;50.046;8.238;2023-02-28T06:13:42;0.25;68.60
66213;SHT31;53015;50.046;8.238;2023-02-28T06:16:09;0.19;68.55
66213;SHT31;53015;50.046;8.238;2023-02-28T06:18:35;0.26;68.67
66213;SHT31;53015;50.046;8.238;2023-02-28T06:21:01;0.19;68.96
66213;SHT31;53015;50.046;8.238;2023-02-28T06:23:26;0.21;68.95
66213;SHT31;53015;50.046;8.238;2023-02-28T06:25:52;0.05;69.34
66213;SHT31;53015;50.046;8.238;2023-02-28T06:28:18;0.14;69.28
66213;SHT31;53015;50.046;8.238;2023-02-28T06:30:43;0.11;68.63
66213;SHT31;53015;50.046;8.238;2023-02-28T06:33:09;0.08;68.44
66213;SHT31;53015;50.046;8.238;2023-02-28T06:35:34;0.12;68.42
66213;SHT31;53015;50.046;8.238;2023-02-28T06:38:00;0.14;68.12
66213;SHT31;53015;50.046;8.238;2023-02-28T06:40:26;0.12;68.28
66213;SHT31;53015;50.046;8.238;2023-02-28T06:42:52;0.17;67.76
66213;SHT31;53015;50.046;8.238;2023-02-28T06:45:17;0.14;67.61
66213;SHT31;53015;50.046;8.238;2023-02-28T06:47:43;0.21;67.07
66213;SHT31;53015;50.046;8.238;2023-02-28T06:50:11;0.15;67.60
66213;SHT31;53015;50.046;8.238;2023-02-28T06:52:37;0.22;67.20
66213;SHT31;53015;50.046;8.238;2023-02-28T06:55:03;0.36;66.83
66213;SHT31;53015;50.046;8.238;2023-02-28T06:57:29;0.36;65.83
66213;SHT31;53015;50.046;8.238;2023-02-28T06:59:56;0.35;65.05
66213;SHT31;53015;50.046;8.238;2023-02-28T07:02:22;0.39;64.91
66213;SHT31;53015;50.046;8.238;2023-02-28T07:04:48;0.55;64.56
66213;SHT31;53015;50.046;8.238;2023-02-28T07:07:14;0.50;64.40
66213;SHT31;53015;50.046;8.238;2023-02-28T07:09:39;0.59;63.31
66213;SHT31;53015;50.046;8.238;2023-02-28T07:12:05;0.66;62.94
66213;SHT31;53015;50.046;8.238;2023-02-28T07:14:30;0.70;62.22
66213;SHT31;53015;50.046;8.238;2023-02-28T07:16:56;0.76;62.08
66213;SHT31;53015;50.046;8.238;2023-02-28T07:19:22;0.80;61.59
66213;SHT31;53015;50.046;8.238;2023-02-28T07:21:47;0.74;62.20
66213;SHT31;53015;50.046;8.238;2023-02-28T07:24:13;0.76;62.12
66213;SHT31;53015;50.046;8.238;2023-02-28T07:26:39;0.85;61.01
66213;SHT31;53015;50.046;8.238;2023-02-28T07:29:04;0.87;60.80
66213;SHT31;53015;50.046;8.238;2023-02-28T07:31:30;0.90;61.03
66213;SHT31;53015;50.046;8.238;2023-02-28T07:33:56;0.95;61.17
66213;SHT31;53015;50.046;8.238;2023-02-28T07:36:22;1.09;60.76
66213;SHT31;53015;50.046;8.238;2023-02-28T07:38:48;1.14;59.97
66213;SHT31;53015;50.046;8.238;2023-02-28T07:41:14;1.21;59.44
66213;SHT31;53015;50.046;8.238;2023-02-28T07:43:39;1.25;59.49
66213;SHT31;53015;50.046;8.238;2023-02-28T07:46:06;1.29;59.75
66213;SHT31;53015;50.046;8.238;2023-02-28T07:48:32;1.29;59.76
66213;SHT31;53015;50.046;8.238;2023-02-28T07:50:59;1.35;59.96
66213;SHT31;53015;50.046;8.238;2023-02-28T07:53:25;1.36;60.10
66213;SHT31;53015;50.046;8.238;2023-02-28T07:55:54;1.40;59.83
66213;SHT31;53015;50.046;8.238;2023-02-28T07:58:20;1.42;60.29
66213;SHT31;53015;50.046;8.238;2023-02-28T08:00:46;1.49;59.49
66213;SHT31;53015;50.046;8.238;2023-02-28T08:03:12;1.52;60.13
66213;SHT31;53015;50.046;8.238;2023-02-28T08:05:38;1.60;59.68
66213;SHT31;53015;50.046;8.238;2023-02-28T08:08:07;1.68;60.03
66213;SHT31;53015;50.046;8.238;2023-02-28T08:10:33;1.68;59.95
66213;SHT31;53015;50.046;8.238;2023-02-28T08:12:59;1.76;60.19
66213;SHT31;53015;50.046;8.238;2023-02-28T08:15:25;1.77;60.21
66213;SHT31;53015;50.046;8.238;2023-02-28T08:17:50;1.80;59.90
66213;SHT31;53015;50.046;8.238;2023-02-28T08:20:16;1.84;60.08
66213;SHT31;53015;50.046;8.238;2023-02-28T08:22:42;1.91;59.75
66213;SHT31;53015;50.046;8.238;2023-02-28T08:25:09;1.88;59.91
66213;SHT31;53015;50.046;8.238;2023-02-28T08:27:34;1.90;59.26
66213;SHT31;53015;50.046;8.238;2023-02-28T08:30:00;1.97;59.80
66213;SHT31;53015;50.046;8.238;2023-02-28T08:32:25;1.98;59.34
66213;SHT31;53015;50.046;8.238;2023-02-28T08:34:51;2.01;59.89
66213;SHT31;53015;50.046;8.238;2023-02-28T08:37:16;2.10;59.30
66213;SHT31;53015;50.046;8.238;2023-02-28T08:39:42;2.18;59.32
66213;SHT31;53015;50.046;8.238;2023-02-28T08:42:08;2.18;58.08
66213;SHT31;53015;50.046;8.238;2023-02-28T08:44:34;2.24;57.67
66213;SHT31;53015;50.046;8.238;2023-02-28T08:47:00;2.24;58.47
66213;SHT31;53015;50.046;8.238;2023-02-28T08:49:25;2.33;59.05
66213;SHT31;53015;50.046;8.238;2023-02-28T08:51:51;2.32;58.31
66213;SHT31;53015;50.046;8.238;2023-02-28T08:54:16;2.41;58.99
66213;SHT31;53015;50.046;8.238;2023-02-28T08:56:42;2.38;58.58
66213;SHT31;53015;50.046;8.238;2023-02-28T08:59:09;2.36;58.61
66213;SHT31;53015;50.046;8.238;2023-02-28T09:01:34;2.38;58.83
66213;SHT31;53015;50.046;8.238;2023-02-28T09:04:00;2.36;58.99
66213;SHT31;53015;50.046;8.238;2023-02-28T09:06:26;2.48;59.14
66213;SHT31;53015;50.046;8.238;2023-02-28T09:08:52;2.48;59.26
66213;SHT31;53015;50.046;8.238;2023-02-28T09:11:18;2.50;58.96
66213;SHT31;53015;50.046;8.238;2023-02-28T09:13:45;2.48;58.84
66213;SHT31;53015;50.046;8.238;2023-02-28T09:16:13;2.48;59.53
66213;SHT31;53015;50.046;8.238;2023-02-28T09:18:40;2.46;59.68
66213;SHT31;53015;50.046;8.238;2023-02-28T09:21:05;2.63;60.17
66213;SHT31;53015;50.046;8.238;2023-02-28T09:23:32;2.72;59.14
66213;SHT31;53015;50.046;8.238;2023-02-28T09:25:57;2.67;59.20
66213;SHT31;53015;50.046;8.238;2023-02-28T09:28:23;2.67;58.93
66213;SHT31;53015;50.046;8.238;2023-02-28T09:30:50;2.75;58.08
66213;SHT31;53015;50.046;8.238;2023-02-28T09:33:18;2.79;57.75
66213;SHT31;53015;50.046;8.238;2023-02-28T09:35:44;2.91;57.57
66213;SHT31;53015;50.046;8.238;2023-02-28T09:38:10;3.03;57.78
66213;SHT31;53015;50.046;8.238;2023-02-28T09:40:37;3.09;57.84
66213;SHT31;53015;50.046;8.238;2023-02-28T09:43:04;3.24;58.16
66213;SHT31;53015;50.046;8.238;2023-02-28T09:45:34;3.17;55.89
66213;SHT31;53015;50.046;8.238;2023-02-28T09:48:03;3.28;56.34
66213;SHT31;53015;50.046;8.238;2023-02-28T09:50:33;3.18;55.60
66213;SHT31;53015;50.046;8.238;2023-02-28T09:53:03;3.09;56.44
66213;SHT31;53015;50.046;8.238;2023-02-28T09:55:33;3.24;55.65
66213;SHT31;53015;50.046;8.238;2023-02-28T09:58:02;3.25;55.58
66213;SHT31;53015;50.046;8.238;2023-02-28T10:00:32;3.28;55.80
66213;SHT31;53015;50.046;8.238;2023-02-28T10:03:10;3.32;55.49
66213;SHT31;53015;50.046;8.238;2023-02-28T10:05:49;3.28;55.37
66213;SHT31;53015;50.046;8.238;2023-02-28T10:08:18;3.38;55.06
66213;SHT31;53015;50.046;8.238;2023-02-28T10:10:47;3.43;54.87
66213;SHT31;53015;50.046;8.238;2023-02-28T10:13:19;3.52;54.46
66213;SHT31;53015;50.046;8.238;2023-02-28T10:15:49;3.52;54.74
66213;SHT31;53015;50.046;8.238;2023-02-28T10:18:21;3.60;54.53
66213;SHT31;53015;50.046;8.238;2023-02-28T10:20:49;3.46;54.42
66213;SHT31;53015;50.046;8.238;2023-02-28T10:23:20;3.64;54.12
66213;SHT31;53015;50.046;8.238;2023-02-28T10:25:50;3.72;54.26
66213;SHT31;53015;50.046;8.238;2023-02-28T10:28:18;3.66;53.67
66213;SHT31;53015;50.046;8.238;2023-02-28T10:30:46;3.97;53.67
66213;SHT31;53015;50.046;8.238;2023-02-28T10:33:18;4.07;52.95
66213;SHT31;53015;50.046;8.238;2023-02-28T10:35:44;4.41;52.65
66213;SHT31;53015;50.046;8.238;2023-02-28T10:38:16;4.50;52.13
66213;SHT31;53015;50.046;8.238;2023-02-28T10:40:41;4.49;51.99
66213;SHT31;53015;50.046;8.238;2023-02-28T10:43:21;4.32;51.40
66213;SHT31;53015;50.046;8.238;2023-02-28T10:46:01;4.11;51.43
66213;SHT31;53015;50.046;8.238;2023-02-28T10:48:38;4.31;52.86
66213;SHT31;53015;50.046;8.238;2023-02-28T10:51:06;4.34;51.31
66213;SHT31;53015;50.046;8.238;2023-02-28T10:53:37;4.35;51.33
66213;SHT31;53015;50.046;8.238;2023-02-28T10:56:05;4.53;51.56
66213;SHT31;53015;50.046;8.238;2023-02-28T10:58:40;4.49;51.59
66213;SHT31;53015;50.046;8.238;2023-02-28T11:01:13;4.42;51.48
66213;SHT31;53015;50.046;8.238;2023-02-28T11:03:39;4.28;51.69
66213;SHT31;53015;50.046;8.238;2023-02-28T11:06:07;4.00;51.63
66213;SHT31;53015;50.046;8.238;2023-02-28T11:08:44;4.01;52.23
66213;SHT31;53015;50.046;8.238;2023-02-28T11:11:10;3.89;52.43
66213;SHT31;53015;50.046;8.238;2023-02-28T11:13:36;4.07;52.44
66213;SHT31;53015;50.046;8.238;2023-02-28T11:16:04;4.25;51.56
66213;SHT31;53015;50.046;8.238;2023-02-28T11:18:41;4.62;52.20
66213;SHT31;53015;50.046;8.238;2023-02-28T11:21:08;5.10;50.89
66213;SHT31;53015;50.046;8.238;2023-02-28T11:23:36;4.98;50.35
66213;SHT31;53015;50.046;8.238;2023-02-28T11:26:05;5.04;50.36
66213;SHT31;53015;50.046;8.238;2023-02-28T11:28:33;4.66;50.54
66213;SHT31;53015;50.046;8.238;2023-02-28T11:31:05;4.67;50.82
66213;SHT31;53015;50.046;8.238;2023-02-28T11:33:32;4.67;50.59
66213;SHT31;53015;50.046;8.238;2023-02-28T11:36:08;4.57;50.69
66213;SHT31;53015;50.046;8.238;2023-02-28T11:38:36;4.74;50.90
66213;SHT31;53015;50.046;8.238;2023-02-28T11:41:19;4.93;50.66
66213;SHT31;53015;50.046;8.238;2023-02-28T11:44:04;4.85;50.14
66213;SHT31;53015;50.046;8.238;2023-02-28T11:46:34;4.87;50.14
66213;SHT31;53015;50.046;8.238;2023-02-28T11:49:14;4.56;50.49
66213;SHT31;53015;50.046;8.238;2023-02-28T11:51:48;4.35;50.69
66213;SHT31;53015;50.046;8.238;2023-02-28T11:54:26;4.38;51.13
66213;SHT31;53015;50.046;8.238;2023-02-28T11:56:56;4.36;50.95
66213;SHT31;53015;50.046;8.238;2023-02-28T11:59:38;4.48;51.15
66213;SHT31;53015;50.046;8.238;2023-02-28T12:02:24;4.73;50.65
66213;SHT31;53015;50.046;8.238;2023-02-28T12:04:58;4.72;50.44
66213;SHT31;53015;50.046;8.238;2023-02-28T12:07:31;4.76;50.52
66213;SHT31;53015;50.046;8.238;2023-02-28T12:10:04;4.70;50.81
66213;SHT31;53015;50.046;8.238;2023-02-28T12:12:39;4.76;49.79
66213;SHT31;53015;50.046;8.238;2023-02-28T12:15:24;4.65;50.26
66213;SHT31;53015;50.046;8.238;2023-02-28T12:18:03;4.69;49.39
66213;SHT31;53015;50.046;8.238;2023-02-28T12:20:35;4.62;49.90
66213;SHT31;53015;50.046;8.238;2023-02-28T12:23:19;4.77;49.78
66213;SHT31;53015;50.046;8.238;2023-02-28T12:25:55;4.94;49.71
66213;SHT31;53015;50.046;8.238;2023-02-28T12:28:24;5.24;50.25
66213;SHT31;53015;50.046;8.238;2023-02-28T12:30:56;5.28;49.16
66213;SHT31;53015;50.046;8.238;2023-02-28T12:33:28;5.14;48.92
66213;SHT31;53015;50.046;8.238;2023-02-28T12:35:57;4.91;49.18
66213;SHT31;53015;50.046;8.238;2023-02-28T12:38:26;4.95;49.70
66213;SHT31;53015;50.046;8.238;2023-02-28T12:40:56;4.87;49.46
66213;SHT31;53015;50.046;8.238;2023-02-28T12:43:25;4.94;49.20
66213;SHT31;53015;50.046;8.238;2023-02-28T12:45:56;4.98;49.32
66213;SHT31;53015;50.046;8.238;2023-02-28T12:48:28;4.93;49.67
66213;SHT31;53015;50.046;8.238;2023-02-28T12:50:54;5.08;50.14
66213;SHT31;53015;50.046;8.238;2023-02-28T12:53:25;4.87;49.92
66213;SHT31;53015;50.046;8.238;2023-02-28T12:56:02;4.94;49.45
66213;SHT31;53015;50.046;8.238;2023-02-28T12:58:34;4.93;49.67
66213;SHT31;53015;50.046;8.238;2023-02-28T13:04:03;5.12;50.00
66213;SHT31;53015;50.046;8.238;2023-02-28T13:06:42;5.28;49.70
66213;SHT31;53015;50.046;8.238;2023-02-28T13:09:11;5.12;49.42
66213;SHT31;53015;50.046;8.238;2023-02-28T13:11:42;5.01;49.36
66213;SHT31;53015;50.046;8.238;2023-02-28T13:14:20;5.04;49.28
66213;SHT31;53015;50.046;8.238;2023-02-28T13:16:56;5.08;49.69
66213;SHT31;53015;50.046;8.238;2023-02-28T13:19:24;5.21;49.92
66213;SHT31;53015;50.046;8.238;2023-02-28T13:21:51;5.18;49.00
66213;SHT31;53015;50.046;8.238;2023-02-28T13:24:40;4.97;48.86
66213;SHT31;53015;50.046;8.238;2023-02-28T13:27:37;5.18;49.57
66213;SHT31;53015;50.046;8.238;2023-02-28T13:33:24;5.12;49.04
66213;SHT31;53015;50.046;8.238;2023-02-28T13:36:07;5.08;49.13
66213;SHT31;53015;50.046;8.238;2023-02-28T13:38:36;5.05;49.04
66213;SHT31;53015;50.046;8.238;2023-02-28T13:44:21;5.15;49.10
66213;SHT31;53015;50.046;8.238;2023-02-28T13:47:28;5.22;49.64
66213;SHT31;53015;50.046;8.238;2023-02-28T13:49:53;5.41;49.91
66213;SHT31;53015;50.046;8.238;2023-02-28T13:52:22;5.41;49.20
66213;SHT31;53015;50.046;8.238;2023-02-28T13:55:15;5.38;48.78
66213;SHT31;53015;50.046;8.238;2023-02-28T13:57:57;5.18;49.40
66213;SHT31;53015;50.046;8.238;2023-02-28T14:00:36;5.18;49.34
66213;SHT31;53015;50.046;8.238;2023-02-28T14:03:30;5.18;49.08
66213;SHT31;53015;50.046;8.238;2023-02-28T14:06:09;5.28;49.57
66213;SHT31;53015;50.046;8.238;2023-02-28T14:08:47;5.30;49.61
66213;SHT31;53015;50.046;8.238;2023-02-28T14:11:25;5.36;49.77
66213;SHT31;53015;50.046;8.238;2023-02-28T14:13:51;5.25;49.44
66213;SHT31;53015;50.046;8.238;2023-02-28T14:16:21;5.35;49.27
66213;SHT31;53015;50.046;8.238;2023-02-28T14:18:51;5.22;49.49
66213;SHT31;53015;50.046;8.238;2023-02-28T14:21:22;5.25;49.67
66213;SHT31;53015;50.046;8.238;2023-02-28T14:24:01;5.24;49.88
66213;SHT31;53015;50.046;8.238;2023-02-28T14:26:44;5.31;50.67
66213;SHT31;53015;50.046;8.238;2023-02-28T14:29:30;5.28;50.14
66213;SHT31;53015;50.046;8.238;2023-02-28T14:32:02;5.42;49.61
66213;SHT31;53015;50.046;8.238;2023-02-28T14:34:38;5.45;50.41
66213;SHT31;53015;50.046;8.238;2023-02-28T14:37:13;5.31;49.26
66213;SHT31;53015;50.046;8.238;2023-02-28T14:39:41;5.42;49.67
66213;SHT31;53015;50.046;8.238;2023-02-28T14:42:27;5.48;49.86
66213;SHT31;53015;50.046;8.238;2023-02-28T14:44:56;5.38;49.49
66213;SHT31;53015;50.046;8.238;2023-02-28T14:47:23;5.38;49.64
66213;SHT31;53015;50.046;8.238;2023-02-28T14:49:51;5.15;49.30
66213;SHT31;53015;50.046;8.238;2023-02-28T14:52:20;5.20;49.76
66213;SHT31;53015;50.046;8.238;2023-02-28T14:54:46;5.18;50.38
66213;SHT31;53015;50.046;8.238;2023-02-28T14:57:22;5.28;50.09
66213;SHT31;53015;50.046;8.238;2023-02-28T14:59:57;5.32;49.85
66213;SHT31;53015;50.046;8.238;2023-02-28T15:02:24;5.31;50.33
66213;SHT31;53015;50.046;8.238;2023-02-28T15:04:54;5.24;50.14
66213;SHT31;53015;50.046;8.238;2023-02-28T15:07:20;5.12;50.22
66213;SHT31;53015;50.046;8.238;2023-02-28T15:09:45;5.08;50.32
66213;SHT31;53015;50.046;8.238;2023-02-28T15:12:13;5.25;50.60
66213;SHT31;53015;50.046;8.238;2023-02-28T15:14:42;5.27;50.28
66213;SHT31;53015;50.046;8.238;2023-02-28T15:17:14;5.20;50.43
66213;SHT31;53015;50.046;8.238;2023-02-28T15:19:42;5.20;50.26
66213;SHT31;53015;50.046;8.238;2023-02-28T15:22:13;5.28;50.72
66213;SHT31;53015;50.046;8.238;2023-02-28T15:24:42;5.31;50.52
66213;SHT31;53015;50.046;8.238;2023-02-28T15:27:14;5.24;51.26
66213;SHT31;53015;50.046;8.238;2023-02-28T15:29:46;5.22;51.39
66213;SHT31;53015;50.046;8.238;2023-02-28T15:32:24;5.27;51.48
66213;SHT31;53015;50.046;8.238;2023-02-28T15:34:51;5.25;51.55
66213;SHT31;53015;50.046;8.238;2023-02-28T15:37:37;5.18;51.69
66213;SHT31;53015;50.046;8.238;2023-02-28T15:40:23;5.15;51.71
66213;SHT31;53015;50.046;8.238;2023-02-28T15:43:14;5.24;51.64
66213;SHT31;53015;50.046;8.238;2023-02-28T15:45:44;5.20;51.88
66213;SHT31;53015;50.046;8.238;2023-02-28T15:48:17;5.03;51.82
66213;SHT31;53015;50.046;8.238;2023-02-28T15:50:44;5.05;52.16
66213;SHT31;53015;50.046;8.238;2023-02-28T15:53:15;5.05;51.94
66213;SHT31;53015;50.046;8.238;2023-02-28T15:55:41;5.04;52.74
66213;SHT31;53015;50.046;8.238;2023-02-28T15:58:09;5.08;52.03
66213;SHT31;53015;50.046;8.238;2023-02-28T16:00:36;5.08;52.30
66213;SHT31;53015;50.046;8.238;2023-02-28T16:03:22;5.04;52.68
66213;SHT31;53015;50.046;8.238;2023-02-28T16:06:09;5.04;52.49
66213;SHT31;53015;50.046;8.238;2023-02-28T16:08:44;4.97;52.69
66213;SHT31;53015;50.046;8.238;2023-02-28T16:11:10;4.97;52.69